createdAt,value
2023-11-12T00:00:03.078Z,0
2023-11-12T00:15:02.531Z,0
2023-11-12T00:30:02.961Z,0
2023-11-12T00:45:02.437Z,0
2023-11-12T01:00:02.864Z,0
2023-11-12T01:15:02.414Z,0
2023-11-12T01:30:02.789Z,0
2023-11-12T01:45:03.198Z,0
2023-11-12T02:00:02.729Z,0
2023-11-12T02:15:03.062Z,0
2023-11-12T02:30:02.427Z,0
2023-11-12T02:45:02.907Z,0
2023-11-12T03:00:02.445Z,0
2023-11-12T03:15:02.791Z,0
2023-11-12T03:30:02.451Z,0
2023-11-12T03:45:02.718Z,0
2023-11-12T04:00:03.148Z,0
2023-11-12T04:15:02.579Z,0
2023-11-12T04:30:03.052Z,0
2023-11-12T04:45:02.492Z,0
2023-11-12T05:00:02.895Z,0
2023-11-12T05:15:02.492Z,0
2023-11-12T05:45:03.420Z,0
2023-11-12T06:00:02.616Z,0
2023-11-12T06:15:03.070Z,0
2023-11-12T06:30:02.492Z,0
2023-11-12T06:45:02.964Z,0
2023-11-12T07:00:02.574Z,0
2023-11-12T07:15:02.815Z,5
2023-11-12T07:30:02.491Z,14
2023-11-12T07:45:10.072Z,14
2023-11-12T08:00:02.178Z,55
2023-11-12T08:15:02.621Z,65
2023-11-12T08:30:03.064Z,46
2023-11-12T08:45:02.512Z,60
2023-11-12T09:00:02.982Z,23
2023-11-12T09:15:02.508Z,11
2023-11-12T09:30:02.836Z,47
2023-11-12T09:45:02.478Z,50
2023-11-12T10:00:04.940Z,62
2023-11-12T10:15:03.143Z,56
2023-11-12T10:30:02.600Z,45
2023-11-12T10:45:03.043Z,72
2023-11-12T11:00:02.671Z,50
2023-11-12T11:15:02.931Z,46
2023-11-12T11:30:02.524Z,102
2023-11-12T11:45:02.786Z,78
2023-11-12T12:00:03.174Z,47
2023-11-12T12:15:02.650Z,104
2023-11-12T12:30:03.037Z,93
2023-11-12T12:45:02.550Z,67
2023-11-12T13:00:02.880Z,149
2023-11-12T13:15:02.543Z,179
2023-11-12T13:30:02.810Z,71
2023-11-12T13:45:03.245Z,84
2023-11-12T14:00:02.670Z,111
2023-11-12T14:15:03.109Z,34
2023-11-12T14:30:02.561Z,36
2023-11-12T14:45:02.988Z,39
2023-11-12T15:00:02.558Z,13
2023-11-12T15:15:02.862Z,3
2023-11-12T15:30:02.304Z,0
2023-11-12T15:45:02.752Z,0
2023-11-12T16:00:03.175Z,0
2023-11-12T16:15:02.592Z,0
2023-11-12T16:30:03.019Z,0
2023-11-12T16:45:02.569Z,0
2023-11-12T17:00:02.911Z,0
2023-11-12T17:15:02.481Z,0
2023-11-12T17:30:02.768Z,0
2023-11-12T17:45:03.222Z,0
2023-11-12T18:00:02.671Z,0
2023-11-12T18:15:03.104Z,0
2023-11-12T18:30:02.592Z,0
2023-11-12T18:45:03.024Z,0
2023-11-12T19:00:02.637Z,0
2023-11-12T19:15:02.875Z,0
2023-11-12T19:30:08.995Z,0
2023-11-12T19:45:02.749Z,0
2023-11-12T20:00:03.221Z,0
2023-11-12T20:15:02.698Z,0
2023-11-12T20:30:03.073Z,0
2023-11-12T20:45:02.616Z,0
2023-11-12T21:00:02.963Z,0
2023-11-12T21:15:02.650Z,0
2023-11-12T21:30:02.836Z,0
2023-11-12T21:45:02.257Z,0
2023-11-12T22:00:02.755Z,0
2023-11-12T22:15:03.125Z,0
2023-11-12T22:30:02.701Z,0
2023-11-12T22:45:02.995Z,0
2023-11-12T23:15:02.875Z,0
2023-11-12T23:30:02.304Z,0
2023-11-12T23:45:02.759Z,0
